ěÝzenÝ letovÚho provozu ╚eskÚ republiky
Letiste: LKBC Aktualizace: 10.08.2020 04:25:25  UTC
 METAR LKBC 10.08. 04:30 ...
METAR LKBC 100430Z AUTO 00000KT 5000 NCD 15/14 Q1018=